sensor_id;sensor_type;location;lat;lon;timestamp;pressure;altitude;pressure_sealevel;temperature;humidity
78613;BME280;67933;51.060;3.638;2023-04-24T00:02:09;100333.19;;;8.27;96.58
78613;BME280;67933;51.060;3.638;2023-04-24T00:04:37;100326.97;;;8.28;96.27
78613;BME280;67933;51.060;3.638;2023-04-24T00:07:06;100331.47;;;8.26;96.68
78613;BME280;67933;51.060;3.638;2023-04-24T00:09:32;100331.19;;;8.30;96.93
78613;BME280;67933;51.060;3.638;2023-04-24T00:11:57;100334.56;;;8.34;96.72
78613;BME280;67933;51.060;3.638;2023-04-24T00:14:23;100332.00;;;8.32;96.62
78613;BME280;67933;51.060;3.638;2023-04-24T00:16:48;100341.56;;;8.35;96.23
78613;BME280;67933;51.060;3.638;2023-04-24T00:19:14;100336.34;;;8.33;96.31
78613;BME280;67933;51.060;3.638;2023-04-24T00:21:39;100330.22;;;8.33;96.22
78613;BME280;67933;51.060;3.638;2023-04-24T00:24:06;100327.97;;;8.25;95.28
78613;BME280;67933;51.060;3.638;2023-04-24T00:26:31;100330.78;;;8.22;95.24
78613;BME280;67933;51.060;3.638;2023-04-24T00:28:57;100331.41;;;8.11;94.90
78613;BME280;67933;51.060;3.638;2023-04-24T00:31:22;100345.97;;;8.03;95.56
78613;BME280;67933;51.060;3.638;2023-04-24T00:33:47;100345.25;;;7.99;95.69
78613;BME280;67933;51.060;3.638;2023-04-24T00:36:13;100332.56;;;8.06;95.38
78613;BME280;67933;51.060;3.638;2023-04-24T00:38:38;100327.97;;;8.09;95.38
78613;BME280;67933;51.060;3.638;2023-04-24T00:41:04;100327.19;;;8.07;95.36
78613;BME280;67933;51.060;3.638;2023-04-24T00:43:29;100324.41;;;8.10;95.43
78613;BME280;67933;51.060;3.638;2023-04-24T00:45:56;100325.25;;;8.11;94.26
78613;BME280;67933;51.060;3.638;2023-04-24T00:48:23;100329.41;;;8.15;94.43
78613;BME280;67933;51.060;3.638;2023-04-24T00:50:50;100333.19;;;8.11;94.77
78613;BME280;67933;51.060;3.638;2023-04-24T00:53:15;100339.41;;;8.10;94.66
78613;BME280;67933;51.060;3.638;2023-04-24T00:55:41;100342.81;;;8.12;94.75
78613;BME280;67933;51.060;3.638;2023-04-24T00:58:06;100343.66;;;8.13;94.59
78613;BME280;67933;51.060;3.638;2023-04-24T01:00:32;100344.59;;;8.11;94.67
78613;BME280;67933;51.060;3.638;2023-04-24T01:02:59;100345.53;;;8.10;94.42
78613;BME280;67933;51.060;3.638;2023-04-24T01:05:26;100347.25;;;8.11;94.33
78613;BME280;67933;51.060;3.638;2023-04-24T01:07:51;100340.06;;;8.13;94.03
78613;BME280;67933;51.060;3.638;2023-04-24T01:10:17;100342.13;;;8.08;94.01
78613;BME280;67933;51.060;3.638;2023-04-24T01:12:42;100342.38;;;8.04;93.92
78613;BME280;67933;51.060;3.638;2023-04-24T01:15:09;100343.06;;;8.07;94.42
78613;BME280;67933;51.060;3.638;2023-04-24T01:17:34;100345.25;;;7.99;94.75
78613;BME280;67933;51.060;3.638;2023-04-24T01:20:00;100339.03;;;8.00;94.79
78613;BME280;67933;51.060;3.638;2023-04-24T01:22:26;100347.91;;;7.99;94.38
78613;BME280;67933;51.060;3.638;2023-04-24T01:24:52;100337.19;;;8.02;94.35
78613;BME280;67933;51.060;3.638;2023-04-24T01:27:19;100347.97;;;7.98;95.21
78613;BME280;67933;51.060;3.638;2023-04-24T01:29:45;100343.66;;;7.97;94.60
78613;BME280;67933;51.060;3.638;2023-04-24T01:32:12;100344.50;;;7.97;94.67
78613;BME280;67933;51.060;3.638;2023-04-24T01:34:38;100348.94;;;7.97;95.20
78613;BME280;67933;51.060;3.638;2023-04-24T01:37:04;100353.38;;;7.96;95.56
78613;BME280;67933;51.060;3.638;2023-04-24T01:39:30;100348.25;;;7.93;95.14
78613;BME280;67933;51.060;3.638;2023-04-24T01:41:56;100361.53;;;7.92;95.86
78613;BME280;67933;51.060;3.638;2023-04-24T01:44:22;100352.66;;;7.93;95.21
78613;BME280;67933;51.060;3.638;2023-04-24T01:46:48;100350.09;;;7.91;95.24
78613;BME280;67933;51.060;3.638;2023-04-24T01:49:13;100352.00;;;7.89;95.83
78613;BME280;67933;51.060;3.638;2023-04-24T01:51:39;100358.22;;;7.88;96.14
78613;BME280;67933;51.060;3.638;2023-04-24T01:54:04;100353.44;;;7.95;96.56
78613;BME280;67933;51.060;3.638;2023-04-24T01:56:33;100353.19;;;7.99;96.48
78613;BME280;67933;51.060;3.638;2023-04-24T01:58:59;100348.09;;;7.96;96.55
78613;BME280;67933;51.060;3.638;2023-04-24T02:01:25;100362.31;;;7.94;95.93
78613;BME280;67933;51.060;3.638;2023-04-24T02:03:50;100362.16;;;7.97;96.72
78613;BME280;67933;51.060;3.638;2023-04-24T02:06:16;100350.88;;;7.93;97.01
78613;BME280;67933;51.060;3.638;2023-04-24T02:08:41;100357.28;;;7.89;96.95
78613;BME280;67933;51.060;3.638;2023-04-24T02:11:09;100355.56;;;7.88;96.94
78613;BME280;67933;51.060;3.638;2023-04-24T02:13:34;100361.72;;;7.89;96.89
78613;BME280;67933;51.060;3.638;2023-04-24T02:16:00;100365.22;;;7.89;97.35
78613;BME280;67933;51.060;3.638;2023-04-24T02:18:26;100364.25;;;7.90;97.65
78613;BME280;67933;51.060;3.638;2023-04-24T02:20:51;100375.66;;;7.91;97.40
78613;BME280;67933;51.060;3.638;2023-04-24T02:23:16;100381.81;;;7.91;96.95
78613;BME280;67933;51.060;3.638;2023-04-24T02:25:42;100390.84;;;7.87;97.70
78613;BME280;67933;51.060;3.638;2023-04-24T02:28:07;100392.38;;;7.91;98.07
78613;BME280;67933;51.060;3.638;2023-04-24T02:30:33;100396.63;;;7.94;97.97
78613;BME280;67933;51.060;3.638;2023-04-24T02:32:58;100397.34;;;7.97;97.88
78613;BME280;67933;51.060;3.638;2023-04-24T02:35:23;100398.00;;;8.01;97.72
78613;BME280;67933;51.060;3.638;2023-04-24T02:37:49;100397.34;;;7.97;97.93
78613;BME280;67933;51.060;3.638;2023-04-24T02:40:14;100394.59;;;7.99;98.05
78613;BME280;67933;51.060;3.638;2023-04-24T02:42:40;100402.50;;;7.99;96.96
78613;BME280;67933;51.060;3.638;2023-04-24T02:45:06;100410.22;;;8.03;96.49
78613;BME280;67933;51.060;3.638;2023-04-24T02:47:31;100405.78;;;8.04;96.49
78613;BME280;67933;51.060;3.638;2023-04-24T02:49:57;100405.66;;;8.05;96.88
78613;BME280;67933;51.060;3.638;2023-04-24T02:52:22;100409.28;;;8.04;97.55
78613;BME280;67933;51.060;3.638;2023-04-24T02:54:47;100420.78;;;8.03;97.17
78613;BME280;67933;51.060;3.638;2023-04-24T02:57:13;100420.16;;;7.98;96.18
78613;BME280;67933;51.060;3.638;2023-04-24T02:59:38;100407.13;;;7.95;96.04
78613;BME280;67933;51.060;3.638;2023-04-24T03:02:04;100416.06;;;7.93;96.22
78613;BME280;67933;51.060;3.638;2023-04-24T03:04:29;100422.19;;;7.93;97.01
78613;BME280;67933;51.060;3.638;2023-04-24T03:06:54;100430.19;;;7.92;96.17
78613;BME280;67933;51.060;3.638;2023-04-24T03:09:21;100436.50;;;7.89;96.69
78613;BME280;67933;51.060;3.638;2023-04-24T03:11:46;100436.50;;;7.89;96.86
78613;BME280;67933;51.060;3.638;2023-04-24T03:14:12;100444.31;;;7.91;96.55
78613;BME280;67933;51.060;3.638;2023-04-24T03:16:37;100444.44;;;7.89;96.87
78613;BME280;67933;51.060;3.638;2023-04-24T03:19:03;100448.94;;;7.87;96.26
78613;BME280;67933;51.060;3.638;2023-04-24T03:21:28;100456.84;;;7.87;96.33
78613;BME280;67933;51.060;3.638;2023-04-24T03:23:54;100448.94;;;7.87;95.75
78613;BME280;67933;51.060;3.638;2023-04-24T03:26:19;100450.78;;;7.85;96.36
78613;BME280;67933;51.060;3.638;2023-04-24T03:28:46;100474.72;;;7.82;96.46
78613;BME280;67933;51.060;3.638;2023-04-24T03:31:11;100472.94;;;7.83;97.06
78613;BME280;67933;51.060;3.638;2023-04-24T03:33:37;100479.16;;;7.82;96.54
78613;BME280;67933;51.060;3.638;2023-04-24T03:36:02;100473.97;;;7.80;95.05
78613;BME280;67933;51.060;3.638;2023-04-24T03:38:28;100485.78;;;7.73;95.83
78613;BME280;67933;51.060;3.638;2023-04-24T03:40:53;100501.75;;;7.70;96.40
78613;BME280;67933;51.060;3.638;2023-04-24T03:43:19;100499.25;;;7.67;95.50
78613;BME280;67933;51.060;3.638;2023-04-24T03:45:44;100497.72;;;7.63;96.15
78613;BME280;67933;51.060;3.638;2023-04-24T03:48:10;100499.50;;;7.62;96.16
78613;BME280;67933;51.060;3.638;2023-04-24T03:50:35;100490.81;;;7.60;95.99
78613;BME280;67933;51.060;3.638;2023-04-24T03:53:00;100493.53;;;7.59;95.70
78613;BME280;67933;51.060;3.638;2023-04-24T03:55:26;100504.19;;;7.57;96.06
78613;BME280;67933;51.060;3.638;2023-04-24T03:57:51;100505.03;;;7.58;95.77
78613;BME280;67933;51.060;3.638;2023-04-24T04:00:17;100505.19;;;7.55;96.22
78613;BME280;67933;51.060;3.638;2023-04-24T04:02:43;100514.03;;;7.54;94.88
78613;BME280;67933;51.060;3.638;2023-04-24T04:05:09;100513.25;;;7.52;95.29
78613;BME280;67933;51.060;3.638;2023-04-24T04:07:34;100518.44;;;7.53;95.50
78613;BME280;67933;51.060;3.638;2023-04-24T04:09:59;100536.25;;;7.50;95.35
78613;BME280;67933;51.060;3.638;2023-04-24T04:12:25;100527.53;;;7.48;95.62
78613;BME280;67933;51.060;3.638;2023-04-24T04:14:50;100537.16;;;7.49;95.19
78613;BME280;67933;51.060;3.638;2023-04-24T04:17:16;100550.38;;;7.49;95.13
78613;BME280;67933;51.060;3.638;2023-04-24T04:19:41;100545.94;;;7.49;95.08
78613;BME280;67933;51.060;3.638;2023-04-24T04:22:07;100543.50;;;7.45;95.54
78613;BME280;67933;51.060;3.638;2023-04-24T04:24:33;100561.22;;;7.43;95.26
78613;BME280;67933;51.060;3.638;2023-04-24T04:26:59;100556.09;;;7.40;94.77
78613;BME280;67933;51.060;3.638;2023-04-24T04:29:25;100555.38;;;7.36;94.86
78613;BME280;67933;51.060;3.638;2023-04-24T04:31:51;100564.31;;;7.33;95.84
78613;BME280;67933;51.060;3.638;2023-04-24T04:34:16;100566.88;;;7.35;95.08
78613;BME280;67933;51.060;3.638;2023-04-24T04:36:42;100566.88;;;7.35;94.39
78613;BME280;67933;51.060;3.638;2023-04-24T04:39:08;100576.28;;;7.41;94.16
78613;BME280;67933;51.060;3.638;2023-04-24T04:41:34;100583.53;;;7.35;94.48
78613;BME280;67933;51.060;3.638;2023-04-24T04:44:02;100584.63;;;7.31;95.33
78613;BME280;67933;51.060;3.638;2023-04-24T04:46:30;100586.34;;;7.32;95.21
78613;BME280;67933;51.060;3.638;2023-04-24T04:48:57;100596.13;;;7.30;94.69
78613;BME280;67933;51.060;3.638;2023-04-24T04:51:23;100597.81;;;7.31;94.91
78613;BME280;67933;51.060;3.638;2023-04-24T04:53:48;100600.34;;;7.34;95.16
78613;BME280;67933;51.060;3.638;2023-04-24T04:56:13;100605.59;;;7.34;95.24
78613;BME280;67933;51.060;3.638;2023-04-24T04:58:39;100617.16;;;7.32;96.18
78613;BME280;67933;51.060;3.638;2023-04-24T05:01:04;100615.19;;;7.35;95.74
78613;BME280;67933;51.060;3.638;2023-04-24T05:03:30;100625.69;;;7.37;95.70
78613;BME280;67933;51.060;3.638;2023-04-24T05:05:55;100626.41;;;7.41;95.99
78613;BME280;67933;51.060;3.638;2023-04-24T05:08:20;100626.19;;;7.45;95.78
78613;BME280;67933;51.060;3.638;2023-04-24T05:10:46;100636.97;;;7.41;95.36
78613;BME280;67933;51.060;3.638;2023-04-24T05:13:13;100651.88;;;7.42;95.88
78613;BME280;67933;51.060;3.638;2023-04-24T05:15:38;100666.69;;;7.44;95.74
78613;BME280;67933;51.060;3.638;2023-04-24T05:18:04;100658.00;;;7.42;95.60
78613;BME280;67933;51.060;3.638;2023-04-24T05:20:29;100662.19;;;7.46;96.06
78613;BME280;67933;51.060;3.638;2023-04-24T05:22:55;100664.91;;;7.45;95.81
78613;BME280;67933;51.060;3.638;2023-04-24T05:25:20;100673.75;;;7.44;95.27
78613;BME280;67933;51.060;3.638;2023-04-24T05:27:46;100675.47;;;7.45;95.01
78613;BME280;67933;51.060;3.638;2023-04-24T05:30:11;100674.59;;;7.44;95.86
78613;BME280;67933;51.060;3.638;2023-04-24T05:32:37;100688.75;;;7.43;95.00
78613;BME280;67933;51.060;3.638;2023-04-24T05:35:02;100691.31;;;7.45;95.80
78613;BME280;67933;51.060;3.638;2023-04-24T05:37:28;100691.22;;;7.46;95.19
78613;BME280;67933;51.060;3.638;2023-04-24T05:39:53;100698.47;;;7.43;95.36
78613;BME280;67933;51.060;3.638;2023-04-24T05:42:19;100707.00;;;7.48;95.11
78613;BME280;67933;51.060;3.638;2023-04-24T05:44:44;100707.78;;;7.50;95.48
78613;BME280;67933;51.060;3.638;2023-04-24T05:47:10;100702.41;;;7.51;95.63
78613;BME280;67933;51.060;3.638;2023-04-24T05:49:35;100705.78;;;7.55;95.86
78613;BME280;67933;51.060;3.638;2023-04-24T05:52:00;100716.34;;;7.55;94.74
78613;BME280;67933;51.060;3.638;2023-04-24T05:54:26;100715.34;;;7.57;95.56
78613;BME280;67933;51.060;3.638;2023-04-24T05:56:51;100715.13;;;7.62;95.28
78613;BME280;67933;51.060;3.638;2023-04-24T05:59:17;100731.53;;;7.68;94.86
78613;BME280;67933;51.060;3.638;2023-04-24T06:01:42;100726.31;;;7.67;95.63
78613;BME280;67933;51.060;3.638;2023-04-24T06:04:08;100737.72;;;7.67;95.29
78613;BME280;67933;51.060;3.638;2023-04-24T06:06:34;100738.44;;;7.71;94.21
78613;BME280;67933;51.060;3.638;2023-04-24T06:09:00;100748.88;;;7.74;95.17
78613;BME280;67933;51.060;3.638;2023-04-24T06:11:26;100757.44;;;7.79;94.59
78613;BME280;67933;51.060;3.638;2023-04-24T06:13:51;100768.00;;;7.79;94.55
78613;BME280;67933;51.060;3.638;2023-04-24T06:16:17;100772.13;;;7.85;94.85
78613;BME280;67933;51.060;3.638;2023-04-24T06:18:42;100777.03;;;7.92;95.02
78613;BME280;67933;51.060;3.638;2023-04-24T06:21:08;100782.69;;;8.03;93.64
78613;BME280;67933;51.060;3.638;2023-04-24T06:23:33;100788.13;;;8.18;92.44
78613;BME280;67933;51.060;3.638;2023-04-24T06:25:59;100782.78;;;8.55;92.53
78613;BME280;67933;51.060;3.638;2023-04-24T06:28:25;100791.91;;;8.67;93.56
78613;BME280;67933;51.060;3.638;2023-04-24T06:30:50;100795.22;;;8.53;93.37
78613;BME280;67933;51.060;3.638;2023-04-24T06:33:16;100805.41;;;8.43;93.38
78613;BME280;67933;51.060;3.638;2023-04-24T06:35:41;100799.13;;;8.27;93.43
78613;BME280;67933;51.060;3.638;2023-04-24T06:38:07;100808.44;;;8.17;92.95
78613;BME280;67933;51.060;3.638;2023-04-24T06:40:32;100815.94;;;8.07;93.36
78613;BME280;67933;51.060;3.638;2023-04-24T06:42:58;100816.72;;;8.09;94.28
78613;BME280;67933;51.060;3.638;2023-04-24T06:45:25;100823.03;;;8.24;93.49
78613;BME280;67933;51.060;3.638;2023-04-24T06:47:51;100824.97;;;8.39;92.14
78613;BME280;67933;51.060;3.638;2023-04-24T06:50:16;100827.25;;;8.47;93.55
78613;BME280;67933;51.060;3.638;2023-04-24T06:52:42;100823.91;;;8.43;92.91
78613;BME280;67933;51.060;3.638;2023-04-24T06:55:07;100828.63;;;8.37;92.09
78613;BME280;67933;51.060;3.638;2023-04-24T06:57:33;100836.78;;;8.32;91.88
78613;BME280;67933;51.060;3.638;2023-04-24T06:59:59;100835.28;;;8.27;91.47
78613;BME280;67933;51.060;3.638;2023-04-24T07:02:24;100838.03;;;8.24;92.96
78613;BME280;67933;51.060;3.638;2023-04-24T07:04:50;100840.69;;;8.24;91.01
78613;BME280;67933;51.060;3.638;2023-04-24T07:07:15;100845.84;;;8.27;92.54
78613;BME280;67933;51.060;3.638;2023-04-24T07:09:41;100845.84;;;8.27;91.22
78613;BME280;67933;51.060;3.638;2023-04-24T07:12:08;100863.06;;;8.35;90.06
78613;BME280;67933;51.060;3.638;2023-04-24T07:14:33;100856.75;;;8.57;91.21
78613;BME280;67933;51.060;3.638;2023-04-24T07:16:59;100870.13;;;8.71;90.68
78613;BME280;67933;51.060;3.638;2023-04-24T07:19:24;100868.97;;;8.76;88.80
78613;BME280;67933;51.060;3.638;2023-04-24T07:21:50;100871.13;;;8.68;89.29
78613;BME280;67933;51.060;3.638;2023-04-24T07:24:15;100891.81;;;8.60;90.26
78613;BME280;67933;51.060;3.638;2023-04-24T07:26:41;100879.31;;;8.45;90.38
78613;BME280;67933;51.060;3.638;2023-04-24T07:29:07;100888.28;;;8.42;90.69
78613;BME280;67933;51.060;3.638;2023-04-24T07:31:32;100896.47;;;8.36;90.54
78613;BME280;67933;51.060;3.638;2023-04-24T07:33:58;100882.03;;;8.25;90.35
78613;BME280;67933;51.060;3.638;2023-04-24T07:36:24;100893.53;;;8.24;91.57
78613;BME280;67933;51.060;3.638;2023-04-24T07:38:51;100889.34;;;8.38;90.80
78613;BME280;67933;51.060;3.638;2023-04-24T07:41:17;100892.59;;;8.62;88.36
78613;BME280;67933;51.060;3.638;2023-04-24T07:43:44;100889.25;;;8.76;86.46
78613;BME280;67933;51.060;3.638;2023-04-24T07:46:09;100897.44;;;8.71;88.24
78613;BME280;67933;51.060;3.638;2023-04-24T07:48:35;100899.63;;;8.80;87.34
78613;BME280;67933;51.060;3.638;2023-04-24T07:51:01;100906.06;;;10.43;82.91
78613;BME280;67933;51.060;3.638;2023-04-24T07:53:26;100910.53;;;10.88;79.08
78613;BME280;67933;51.060;3.638;2023-04-24T07:55:52;100902.09;;;12.26;76.29
78613;BME280;67933;51.060;3.638;2023-04-24T07:58:19;100904.88;;;12.92;70.96
78613;BME280;67933;51.060;3.638;2023-04-24T08:00:44;100899.22;;;14.00;67.32
78613;BME280;67933;51.060;3.638;2023-04-24T08:03:10;100902.50;;;12.61;70.80
78613;BME280;67933;51.060;3.638;2023-04-24T08:05:37;100912.72;;;11.55;73.09
78613;BME280;67933;51.060;3.638;2023-04-24T08:08:03;100917.66;;;10.87;77.19
78613;BME280;67933;51.060;3.638;2023-04-24T08:10:28;100928.47;;;10.37;79.93
78613;BME280;67933;51.060;3.638;2023-04-24T08:12:54;100929.16;;;10.40;81.29
78613;BME280;67933;51.060;3.638;2023-04-24T08:15:20;100932.56;;;11.19;75.88
78613;BME280;67933;51.060;3.638;2023-04-24T08:17:46;100935.16;;;11.93;72.98
78613;BME280;67933;51.060;3.638;2023-04-24T08:20:12;100936.63;;;11.69;72.47
78613;BME280;67933;51.060;3.638;2023-04-24T08:22:41;100946.56;;;12.38;70.89
78613;BME280;67933;51.060;3.638;2023-04-24T08:25:07;100942.81;;;13.35;65.38
78613;BME280;67933;51.060;3.638;2023-04-24T08:27:33;100955.16;;;12.56;65.26
78613;BME280;67933;51.060;3.638;2023-04-24T08:29:59;100951.94;;;12.51;66.63
78613;BME280;67933;51.060;3.638;2023-04-24T08:32:25;100959.66;;;12.82;64.76
78613;BME280;67933;51.060;3.638;2023-04-24T08:34:54;100949.69;;;11.88;69.37
78613;BME280;67933;51.060;3.638;2023-04-24T08:37:21;100968.84;;;11.35;71.66
78613;BME280;67933;51.060;3.638;2023-04-24T08:39:47;100968.94;;;10.88;72.27
78613;BME280;67933;51.060;3.638;2023-04-24T08:42:12;100975.69;;;10.46;72.36
78613;BME280;67933;51.060;3.638;2023-04-24T08:44:40;100982.69;;;10.31;73.71
78613;BME280;67933;51.060;3.638;2023-04-24T08:47:07;100973.44;;;10.38;73.75
78613;BME280;67933;51.060;3.638;2023-04-24T08:49:33;100980.41;;;10.57;76.45
78613;BME280;67933;51.060;3.638;2023-04-24T08:51:58;100984.00;;;10.71;73.72
78613;BME280;67933;51.060;3.638;2023-04-24T08:54:25;100986.50;;;10.74;73.24
78613;BME280;67933;51.060;3.638;2023-04-24T08:56:53;100987.34;;;10.75;73.10
78613;BME280;67933;51.060;3.638;2023-04-24T08:59:19;100992.81;;;10.56;72.04
78613;BME280;67933;51.060;3.638;2023-04-24T09:01:48;100996.13;;;10.28;71.66
78613;BME280;67933;51.060;3.638;2023-04-24T09:04:15;100997.84;;;10.29;73.47
78613;BME280;67933;51.060;3.638;2023-04-24T09:06:43;100996.44;;;10.22;73.05
78613;BME280;67933;51.060;3.638;2023-04-24T09:09:10;101008.00;;;10.21;70.44
78613;BME280;67933;51.060;3.638;2023-04-24T09:11:36;100996.81;;;10.15;70.82
78613;BME280;67933;51.060;3.638;2023-04-24T09:14:03;101008.91;;;10.37;72.16
78613;BME280;67933;51.060;3.638;2023-04-24T09:16:28;101003.78;;;10.66;71.72
78613;BME280;67933;51.060;3.638;2023-04-24T09:18:55;101008.47;;;10.76;68.90
78613;BME280;67933;51.060;3.638;2023-04-24T09:21:21;101009.25;;;10.78;71.80
78613;BME280;67933;51.060;3.638;2023-04-24T09:23:58;101006.34;;;10.83;69.79
78613;BME280;67933;51.060;3.638;2023-04-24T09:26:24;101013.47;;;10.67;70.94
78613;BME280;67933;51.060;3.638;2023-04-24T09:28:50;101022.28;;;10.99;69.93
78613;BME280;67933;51.060;3.638;2023-04-24T09:31:19;101021.22;;;11.17;67.49
78613;BME280;67933;51.060;3.638;2023-04-24T09:36:30;101025.53;;;11.04;68.12
78613;BME280;67933;51.060;3.638;2023-04-24T09:39:02;101035.69;;;11.57;67.81
78613;BME280;67933;51.060;3.638;2023-04-24T09:41:28;101026.84;;;11.42;65.98
78613;BME280;67933;51.060;3.638;2023-04-24T09:43:55;101027.97;;;12.26;68.68
78613;BME280;67933;51.060;3.638;2023-04-24T09:46:20;101034.28;;;11.81;63.35
78613;BME280;67933;51.060;3.638;2023-04-24T09:48:49;101036.13;;;12.23;64.70
78613;BME280;67933;51.060;3.638;2023-04-24T09:51:14;101042.44;;;11.78;64.91
78613;BME280;67933;51.060;3.638;2023-04-24T09:53:45;101040.03;;;11.44;64.97
78613;BME280;67933;51.060;3.638;2023-04-24T09:56:11;101038.13;;;11.46;64.46
78613;BME280;67933;51.060;3.638;2023-04-24T09:58:39;101042.78;;;11.27;65.77
78613;BME280;67933;51.060;3.638;2023-04-24T10:01:05;101049.72;;;12.33;65.00
78613;BME280;67933;51.060;3.638;2023-04-24T10:03:31;101047.25;;;12.16;63.75
78613;BME280;67933;51.060;3.638;2023-04-24T10:06:01;101050.56;;;11.91;63.56
78613;BME280;67933;51.060;3.638;2023-04-24T10:08:33;101059.00;;;11.68;63.21
78613;BME280;67933;51.060;3.638;2023-04-24T10:10:59;101068.88;;;11.50;63.27
78613;BME280;67933;51.060;3.638;2023-04-24T10:13:25;101071.72;;;11.31;64.52
78613;BME280;67933;51.060;3.638;2023-04-24T10:15:51;101079.47;;;11.36;65.59
78613;BME280;67933;51.060;3.638;2023-04-24T10:18:18;101069.50;;;12.15;62.95
78613;BME280;67933;51.060;3.638;2023-04-24T10:20:47;101066.06;;;12.13;61.67
78613;BME280;67933;51.060;3.638;2023-04-24T10:23:13;101068.56;;;11.70;62.43
78613;BME280;67933;51.060;3.638;2023-04-24T10:25:39;101073.25;;;11.51;64.33
78613;BME280;67933;51.060;3.638;2023-04-24T10:28:05;101070.88;;;11.92;60.85
78613;BME280;67933;51.060;3.638;2023-04-24T10:30:34;101072.81;;;11.74;64.36
78613;BME280;67933;51.060;3.638;2023-04-24T10:33:01;101075.97;;;11.81;64.22
78613;BME280;67933;51.060;3.638;2023-04-24T10:35:30;101080.00;;;12.02;63.58
78613;BME280;67933;51.060;3.638;2023-04-24T10:37:59;101090.31;;;12.37;62.55
78613;BME280;67933;51.060;3.638;2023-04-24T10:40:33;101090.19;;;12.24;61.07
78613;BME280;67933;51.060;3.638;2023-04-24T10:43:01;101086.75;;;11.62;62.51
78613;BME280;67933;51.060;3.638;2023-04-24T10:45:27;101096.31;;;11.96;63.23
78613;BME280;67933;51.060;3.638;2023-04-24T10:50:42;101089.31;;;13.08;59.67
78613;BME280;67933;51.060;3.638;2023-04-24T10:53:21;101093.41;;;13.28;60.50
78613;BME280;67933;51.060;3.638;2023-04-24T10:56:12;101099.19;;;13.35;57.55
78613;BME280;67933;51.060;3.638;2023-04-24T11:01:06;101108.16;;;14.25;56.21
78613;BME280;67933;51.060;3.638;2023-04-24T11:03:34;101093.41;;;15.69;52.29
78613;BME280;67933;51.060;3.638;2023-04-24T11:06:07;101100.63;;;16.14;52.57
78613;BME280;67933;51.060;3.638;2023-04-24T11:08:44;101085.81;;;17.22;47.55
78613;BME280;67933;51.060;3.638;2023-04-24T11:11:17;101100.59;;;17.05;48.60
78613;BME280;67933;51.060;3.638;2023-04-24T11:19:00;101095.47;;;17.24;46.79
78613;BME280;67933;51.060;3.638;2023-04-24T11:21:31;101102.09;;;15.84;50.64
78613;BME280;67933;51.060;3.638;2023-04-24T11:23:58;101108.34;;;14.62;53.58
78613;BME280;67933;51.060;3.638;2023-04-24T11:26:24;101122.53;;;13.98;57.07
78613;BME280;67933;51.060;3.638;2023-04-24T11:29:06;101113.22;;;14.43;57.22
78613;BME280;67933;51.060;3.638;2023-04-24T11:31:40;101113.19;;;16.25;50.96
78613;BME280;67933;51.060;3.638;2023-04-24T11:34:11;101116.28;;;15.73;48.29
78613;BME280;67933;51.060;3.638;2023-04-24T11:36:37;101118.25;;;14.60;52.54
78613;BME280;67933;51.060;3.638;2023-04-24T11:39:03;101122.38;;;14.26;54.55
78613;BME280;67933;51.060;3.638;2023-04-24T11:41:29;101122.31;;;14.53;51.85
78613;BME280;67933;51.060;3.638;2023-04-24T11:43:56;101135.34;;;14.05;54.55
78613;BME280;67933;51.060;3.638;2023-04-24T11:46:22;101129.38;;;14.54;52.46
78613;BME280;67933;51.060;3.638;2023-04-24T11:48:47;101127.66;;;14.66;52.22
78613;BME280;67933;51.060;3.638;2023-04-24T11:51:13;101138.19;;;14.16;52.37
78613;BME280;67933;51.060;3.638;2023-04-24T11:53:39;101129.38;;;14.02;51.71
78613;BME280;67933;51.060;3.638;2023-04-24T11:56:05;101134.97;;;14.37;55.50
78613;BME280;67933;51.060;3.638;2023-04-24T11:58:38;101142.94;;;14.11;56.55
78613;BME280;67933;51.060;3.638;2023-04-24T12:01:04;101138.19;;;13.77;53.91
78613;BME280;67933;51.060;3.638;2023-04-24T12:03:30;101146.72;;;13.14;55.22
78613;BME280;67933;51.060;3.638;2023-04-24T12:06:10;101141.19;;;12.89;56.36
78613;BME280;67933;51.060;3.638;2023-04-24T12:08:36;101148.97;;;13.06;60.19
78613;BME280;67933;51.060;3.638;2023-04-24T12:11:03;101151.22;;;13.40;57.40
78613;BME280;67933;51.060;3.638;2023-04-24T12:13:29;101161.63;;;14.11;54.05
78613;BME280;67933;51.060;3.638;2023-04-24T12:15:56;101153.41;;;14.14;53.73
78613;BME280;67933;51.060;3.638;2023-04-24T12:18:23;101152.56;;;14.14;51.94
78613;BME280;67933;51.060;3.638;2023-04-24T12:20:49;101149.31;;;14.48;50.15
78613;BME280;67933;51.060;3.638;2023-04-24T12:23:14;101154.03;;;14.57;49.39
78613;BME280;67933;51.060;3.638;2023-04-24T12:25:40;101145.59;;;14.38;52.93
78613;BME280;67933;51.060;3.638;2023-04-24T12:30:38;101156.94;;;15.29;48.52
78613;BME280;67933;51.060;3.638;2023-04-24T12:33:03;101159.63;;;14.27;50.68
78613;BME280;67933;51.060;3.638;2023-04-24T12:35:31;101153.00;;;13.54;53.07
78613;BME280;67933;51.060;3.638;2023-04-24T12:38:11;101162.19;;;15.67;47.97
78613;BME280;67933;51.060;3.638;2023-04-24T12:40:38;101160.88;;;15.72;47.92
78613;BME280;67933;51.060;3.638;2023-04-24T12:43:14;101162.59;;;15.37;50.43
78613;BME280;67933;51.060;3.638;2023-04-24T12:45:40;101173.31;;;13.42;50.58
78613;BME280;67933;51.060;3.638;2023-04-24T12:48:05;101160.19;;;13.25;51.83
78613;BME280;67933;51.060;3.638;2023-04-24T12:50:30;101167.06;;;13.29;55.65
78613;BME280;67933;51.060;3.638;2023-04-24T12:52:56;101168.28;;;14.31;51.94
78613;BME280;67933;51.060;3.638;2023-04-24T12:55:21;101171.44;;;14.88;49.05
78613;BME280;67933;51.060;3.638;2023-04-24T12:57:47;101150.47;;;15.57;47.07
78613;BME280;67933;51.060;3.638;2023-04-24T13:00:13;101154.72;;;16.42;44.14
78613;BME280;67933;51.060;3.638;2023-04-24T13:02:38;101150.56;;;17.06;41.49
78613;BME280;67933;51.060;3.638;2023-04-24T13:05:04;101156.19;;;17.03;40.81
78613;BME280;67933;51.060;3.638;2023-04-24T13:07:29;101153.66;;;17.99;40.24